Time;durP1;ratioP1;P1;durP2;ratioP2;P2;SDS_P1;SDS_P2;PMS_P1;PMS_P2;Temp;Humidity;BMP_temperature;BMP_pressure;BME280_temperature;BME280_humidity;BME280_pressure;Samples;Min_cycle;Max_cycle;Signal;HPM_P1;HPM_P2
2023/08/26 04:08:34;;;;;;;15.50;14.10;;;;;;;19.33;100.00;98474.55;103960;1279;605688;-72
2023/08/26 04:11:01;;;;;;;15.20;13.70;;;;;;;19.43;100.00;98472.63;105002;1263;59391;-72
2023/08/26 04:13:28;;;;;;;16.40;14.80;;;;;;;19.69;100.00;98473.70;104989;1263;59374;-71
2023/08/26 04:15:56;;;;;;;14.90;13.30;;;;;;;19.98;100.00;98473.51;105002;1264;63274;-72
2023/08/26 04:18:23;;;;;;;13.30;12.10;;;;;;;20.26;100.00;98471.91;104932;1263;60831;-72
2023/08/26 04:20:50;;;;;;;13.60;12.20;;;;;;;20.59;100.00;98476.62;104900;1264;163375;-72
2023/08/26 04:23:16;;;;;;;12.20;10.90;;;;;;;20.92;100.00;98476.36;105692;1254;59260;-72
2023/08/26 04:25:43;;;;;;;12.20;10.90;;;;;;;21.20;100.00;98475.41;105374;1253;59518;-73
2023/08/26 04:28:11;;;;;;;10.90;10.00;;;;;;;21.48;100.00;98476.34;105689;1254;59336;-73
2023/08/26 04:30:37;;;;;;;10.90;10.00;;;;;;;21.79;100.00;98477.61;105730;1254;69044;-73
2023/08/26 04:33:04;;;;;;;10.20;9.40;;;;;;;22.09;100.00;98482.69;105321;1254;59682;-73
2023/08/26 04:35:31;;;;;;;10.20;9.40;;;;;;;22.43;100.00;98484.98;105548;1254;59646;-74
2023/08/26 04:37:57;;;;;;;9.90;8.90;;;;;;;22.69;100.00;98487.92;105685;1254;59566;-74
2023/08/26 04:40:25;;;;;;;9.90;8.90;;;;;;;22.99;100.00;98486.15;105685;1256;59646;-73
2023/08/26 04:42:53;;;;;;;10.60;9.50;;;;;;;23.33;100.00;98490.69;105617;1254;60309;-73
2023/08/26 04:45:20;;;;;;;11.70;10.50;;;;;;;23.65;100.00;98495.11;105681;1254;64047;-73
2023/08/26 04:47:46;;;;;;;10.70;9.60;;;;;;;23.96;100.00;98491.44;105653;1254;59961;-73
2023/08/26 04:50:13;;;;;;;10.90;9.70;;;;;;;24.22;100.00;98492.57;105667;1254;59733;-73
2023/08/26 04:52:39;;;;;;;11.30;10.10;;;;;;;24.43;100.00;98493.77;105681;1253;59516;-73
2023/08/26 04:55:10;;;;;;;10.30;9.40;;;;;;;24.65;100.00;98495.81;105671;1253;69503;-75
2023/08/26 04:57:36;;;;;;;10.40;9.40;;;;;;;24.87;100.00;98499.17;105310;1257;64749;-73
2023/08/26 05:00:10;;;;;;;11.30;9.10;;;;;;;25.19;100.00;98497.77;105567;1257;59666;-74
2023/08/26 05:02:39;;;;;;;11.10;10.00;;;;;;;25.53;100.00;98500.92;105721;1253;59586;-74
2023/08/26 05:05:06;;;;;;;;;;;;;;;25.88;100.00;98496.03;105686;1254;64857;-74
2023/08/26 05:07:32;;;;;;;11.10;10.00;;;;;;;26.20;100.00;98496.11;105685;1254;59739;-73
2023/08/26 05:09:59;;;;;;;10.70;9.70;;;;;;;26.58;100.00;98493.86;105672;1256;59739;-74
2023/08/26 05:12:25;;;;;;;11.30;10.30;;;;;;;26.96;100.00;98495.97;105664;1255;59723;-74
2023/08/26 05:14:51;;;;;;;11.90;10.60;;;;;;;27.35;100.00;98496.38;105681;1254;59736;-74
2023/08/26 05:17:17;;;;;;;11.10;10.10;;;;;;;27.63;100.00;98495.00;105732;1256;59768;-74
2023/08/26 05:19:43;;;;;;;12.10;10.50;;;;;;;27.74;100.00;98488.36;105674;1254;59742;-73
2023/08/26 05:22:09;;;;;;;11.30;10.40;;;;;;;27.75;100.00;98485.39;105670;1254;59685;-74
2023/08/26 05:24:35;;;;;;;11.80;10.70;;;;;;;27.24;100.00;98482.07;105837;1254;59841;-74
2023/08/26 05:27:01;;;;;;;13.00;10.70;;;;;;;26.81;100.00;98481.91;105899;1251;59682;-75
2023/08/26 05:29:27;;;;;;;14.00;12.00;;;;;;;26.73;100.00;98480.59;105865;1254;67591;-74
2023/08/26 05:31:52;;;;;;;12.10;10.90;;;;;;;27.10;100.00;98480.95;105890;1251;59758;-77
2023/08/26 05:34:18;;;;;;;11.90;10.50;;;;;;;27.55;100.00;98481.17;105970;1254;59739;-75
2023/08/26 05:36:45;;;;;;;12.50;11.10;;;;;;;27.93;100.00;98481.45;105930;1254;60215;-74
2023/08/26 05:39:10;;;;;;;12.60;10.80;;;;;;;28.17;100.00;98484.06;105951;1254;59773;-74
2023/08/26 05:41:37;;;;;;;10.90;9.70;;;;;;;28.46;100.00;98478.92;105665;1259;59730;-75
2023/08/26 05:44:03;;;;;;;11.70;10.60;;;;;;;28.61;100.00;98477.11;105921;1254;59720;-74
2023/08/26 05:46:29;;;;;;;13.00;10.20;;;;;;;28.84;100.00;98475.27;105972;1251;59630;-74
2023/08/26 05:48:55;;;;;;;11.20;9.90;;;;;;;28.98;100.00;98482.45;105879;1251;59752;-76
2023/08/26 05:51:21;;;;;;;10.70;9.80;;;;;;;29.11;100.00;98483.94;105933;1251;59711;-73
2023/08/26 05:53:47;;;;;;;10.90;9.80;;;;;;;29.20;100.00;98485.48;105836;1251;65008;-74
2023/08/26 05:56:13;;;;;;;9.90;8.90;;;;;;;29.39;100.00;98484.88;105827;1256;59720;-74
2023/08/26 05:58:39;;;;;;;10.20;9.20;;;;;;;29.48;100.00;98482.69;105690;1256;59707;-73
2023/08/26 06:01:05;;;;;;;11.40;9.00;;;;;;;29.57;100.00;98482.83;105869;1254;61057;-74
2023/08/26 06:03:31;;;;;;;9.70;8.40;;;;;;;29.64;100.00;98484.29;105908;1253;59767;-74
2023/08/26 06:05:57;;;;;;;10.10;9.00;;;;;;;29.71;100.00;98484.84;105611;1251;59637;-74
2023/08/26 06:08:23;;;;;;;9.90;8.90;;;;;;;29.75;100.00;98487.02;105872;1254;59701;-74
2023/08/26 06:10:56;;;;;;;11.40;8.70;;;;;;;29.81;100.00;98487.84;105895;1251;59678;-74
2023/08/26 06:13:22;;;;;;;9.50;8.60;;;;;;;29.95;100.00;98495.01;105904;1251;60466;-74
2023/08/26 06:15:55;;;;;;;10.70;8.80;;;;;;;29.99;100.00;98497.52;105872;1250;59749;-74
2023/08/26 06:18:22;;;;;;;10.20;9.20;;;;;;;30.05;100.00;98495.62;105872;1251;59624;-74
2023/08/26 06:20:50;;;;;;;10.20;8.90;;;;;;;30.16;100.00;98494.60;105904;1251;59855;-74
2023/08/26 06:23:17;;;;;;;10.10;9.00;;;;;;;30.36;100.00;98493.94;105931;1254;65227;-73
2023/08/26 06:25:51;;;;;;;9.10;8.20;;;;;;;30.57;100.00;98498.87;105898;1251;59648;-73
2023/08/26 06:28:18;;;;;;;11.10;8.30;;;;;;;30.70;100.00;98504.47;105860;1251;63029;-75
2023/08/26 06:30:44;;;;;;;8.70;7.90;;;;;;;30.79;100.00;98510.25;105868;1251;61253;-74
2023/08/26 06:33:10;;;;;;;10.50;8.00;;;;;;;30.89;100.00;98515.36;105716;1256;59643;-75
2023/08/26 06:35:36;;;;;;;11.00;8.40;;;;;;;31.00;100.00;98515.69;105898;1251;59733;-74
2023/08/26 06:38:02;;;;;;;9.70;8.30;;;;;;;30.97;100.00;98521.13;105867;1251;59653;-73
2023/08/26 06:40:31;;;;;;;12.40;8.70;;;;;;;30.97;100.00;98522.19;105884;1251;59701;-74
2023/08/26 06:42:57;;;;;;;10.20;9.20;;;;;;;30.82;100.00;98520.30;105831;1251;59675;-76
2023/08/26 06:45:23;;;;;;;8.50;7.70;;;;;;;30.79;100.00;98517.33;105841;1254;59508;-76
2023/08/26 06:47:49;;;;;;;9.10;8.30;;;;;;;30.89;100.00;98518.84;105845;1251;59676;-74
2023/08/26 06:50:16;;;;;;;9.30;7.40;;;;;;;30.83;100.00;98519.32;105903;1250;59666;-75
2023/08/26 06:52:42;;;;;;;9.10;8.00;;;;;;;30.62;100.00;98520.81;105869;1251;59668;-74
2023/08/26 06:55:10;;;;;;;9.00;8.00;;;;;;;30.43;100.00;98524.50;105842;1251;59771;-74
2023/08/26 06:57:37;;;;;;;8.90;8.00;;;;;;;30.23;100.00;98532.61;105827;1251;61081;-76
2023/08/26 07:00:08;;;;;;;9.00;7.80;;;;;;;29.97;100.00;98533.86;105900;1254;59637;-75
2023/08/26 07:02:35;;;;;;;8.60;7.70;;;;;;;29.84;100.00;98531.40;105896;1251;59740;-76
2023/08/26 07:05:01;;;;;;;8.90;7.50;;;;;;;29.76;100.00;98530.66;105852;1251;64509;-73
2023/08/26 07:07:27;;;;;;;9.10;8.20;;;;;;;29.70;100.00;98532.58;105826;1254;59720;-73
2023/08/26 07:09:53;;;;;;;8.00;6.90;;;;;;;29.61;100.00;98537.22;105890;1254;59771;-75
2023/08/26 07:12:20;;;;;;;8.60;7.70;;;;;;;29.53;100.00;98537.34;105781;1250;59762;-74
2023/08/26 07:14:45;;;;;;;9.90;8.20;;;;;;;29.42;100.00;98535.52;105827;1253;59673;-74
2023/08/26 07:17:12;;;;;;;10.10;9.10;;;;;;;29.41;100.00;98534.94;105859;1253;59755;-74
2023/08/26 07:19:39;;;;;;;10.70;8.90;;;;;;;29.36;100.00;98537.34;105853;1251;59672;-74
2023/08/26 07:22:05;;;;;;;10.90;8.90;;;;;;;29.31;100.00;98534.19;105912;1251;59740;-75
2023/08/26 07:24:30;;;;;;;9.20;7.60;;;;;;;29.27;100.00;98538.21;105909;1251;59742;-73
2023/08/26 07:26:56;;;;;;;9.80;8.90;;;;;;;29.17;100.00;98541.14;105902;1254;59656;-75
2023/08/26 07:29:22;;;;;;;12.10;8.40;;;;;;;29.02;100.00;98543.94;105878;1254;59679;-74
2023/08/26 07:31:48;;;;;;;10.80;7.90;;;;;;;28.99;100.00;98542.80;105901;1251;59519;-73
2023/08/26 07:34:14;;;;;;;9.30;8.40;;;;;;;29.02;100.00;98540.17;105564;1251;59830;-73
2023/08/26 07:36:40;;;;;;;10.40;9.20;;;;;;;29.07;100.00;98538.94;105841;1251;59590;-75
2023/08/26 07:39:06;;;;;;;9.50;8.30;;;;;;;29.08;100.00;98535.20;105868;1252;59688;-73
2023/08/26 07:41:32;;;;;;;9.10;8.20;;;;;;;29.08;100.00;98537.77;105868;1254;59646;-73
2023/08/26 07:43:58;;;;;;;9.50;8.70;;;;;;;29.21;100.00;98534.11;105836;1254;59681;-74
2023/08/26 07:46:24;;;;;;;10.10;8.90;;;;;;;29.34;100.00;98536.23;105880;1254;60015;-74
2023/08/26 07:48:49;;;;;;;9.40;8.50;;;;;;;29.29;100.00;98534.10;105901;1252;59765;-74
2023/08/26 07:51:16;;;;;;;9.20;8.10;;;;;;;29.36;100.00;98537.34;105860;1254;59729;-75
2023/08/26 07:53:42;;;;;;;9.70;8.60;;;;;;;29.55;100.00;98539.52;105943;1251;59553;-74
2023/08/26 07:56:08;;;;;;;9.10;8.20;;;;;;;29.64;100.00;98540.70;105703;1258;60915;-75
2023/08/26 07:58:34;;;;;;;9.70;8.70;;;;;;;29.58;100.00;98537.23;105904;1252;59861;-76
2023/08/26 08:01:00;;;;;;;9.70;8.70;;;;;;;29.61;100.00;98536.98;105861;1254;59748;-74
2023/08/26 08:03:26;;;;;;;9.20;7.80;;;;;;;29.66;100.00;98534.66;105770;1254;59688;-75
2023/08/26 08:05:53;;;;;;;9.50;7.80;;;;;;;29.76;100.00;98532.85;105688;1259;59768;-73
2023/08/26 08:08:18;;;;;;;10.90;7.60;;;;;;;29.78;100.00;98530.49;105841;1251;59669;-76
2023/08/26 08:10:44;;;;;;;8.60;7.70;;;;;;;29.76;100.00;98528.38;105694;1256;59778;-75
2023/08/26 08:13:11;;;;;;;8.10;7.30;;;;;;;29.79;100.00;98526.85;105900;1256;60793;-74
2023/08/26 08:15:37;;;;;;;7.90;7.10;;;;;;;29.86;100.00;98528.70;105902;1251;60524;-75
2023/08/26 08:18:03;;;;;;;7.80;7.10;;;;;;;29.96;100.00;98527.18;105540;1256;60550;-76
2023/08/26 08:20:32;;;;;;;8.40;7.60;;;;;;;30.03;100.00;98525.29;105666;1259;60464;-75
2023/08/26 08:22:58;;;;;;;8.80;8.00;;;;;;;30.08;100.00;98526.52;105432;1251;65259;-74
2023/08/26 08:25:27;;;;;;;9.60;8.60;;;;;;;30.14;100.00;98526.38;105861;1254;60488;-75
2023/08/26 08:27:52;;;;;;;9.90;8.00;;;;;;;30.17;100.00;98526.67;105871;1250;60469;-75
2023/08/26 08:30:19;;;;;;;9.40;8.50;;;;;;;30.04;100.00;98525.27;105912;1251;60645;-75
2023/08/26 08:32:45;;;;;;;9.70;8.50;;;;;;;29.92;100.00;98528.03;105686;1251;60446;-75
2023/08/26 08:35:11;;;;;;;9.50;8.60;;;;;;;29.97;100.00;98521.98;105845;1251;60514;-74
2023/08/26 08:37:37;;;;;;;10.20;7.90;;;;;;;30.03;100.00;98520.64;105854;1251;60542;-75
2023/08/26 08:40:06;;;;;;;9.30;8.40;;;;;;;30.11;100.00;98520.27;106021;1251;60501;-74
2023/08/26 08:42:34;;;;;;;9.30;8.50;;;;;;;30.17;100.00;98522.43;105954;1251;66023;-74
2023/08/26 08:45:03;;;;;;;9.60;8.90;;;;;;;30.24;100.00;98520.95;105927;1250;60747;-74
2023/08/26 08:47:30;;;;;;;10.50;8.80;;;;;;;30.26;100.00;98512.33;105873;1251;73155;-74
2023/08/26 08:49:57;;;;;;;10.30;9.30;;;;;;;30.34;100.00;98504.25;105906;1254;60538;-73
2023/08/26 08:52:25;;;;;;;9.20;8.20;;;;;;;30.48;100.00;98503.25;105928;1251;60542;-75
2023/08/26 08:54:52;;;;;;;9.50;8.70;;;;;;;30.69;100.00;98494.20;105743;1251;64769;-74
2023/08/26 08:57:26;;;;;;;10.00;8.80;;;;;;;30.90;100.00;98491.40;105842;1251;69860;-74
2023/08/26 08:59:54;;;;;;;9.90;8.90;;;;;;;31.16;100.00;98492.74;105934;1251;64463;-75
2023/08/26 09:02:21;;;;;;;9.50;8.60;;;;;;;31.35;100.00;98489.06;105957;1251;60596;-72
2023/08/26 09:04:48;;;;;;;9.60;8.50;;;;;;;31.49;100.00;98486.11;105893;1251;60472;-74
2023/08/26 09:07:15;;;;;;;7.50;6.80;;;;;;;31.62;100.00;98489.67;105865;1254;74442;-74
2023/08/26 09:09:41;;;;;;;8.50;7.70;;;;;;;31.69;100.00;98496.06;105963;1252;60603;-73
2023/08/26 09:12:07;;;;;;;8.60;7.90;;;;;;;31.90;100.00;98495.39;105876;1251;60571;-74
2023/08/26 09:14:33;;;;;;;9.00;8.30;;;;;;;32.13;100.00;98491.71;105932;1254;60475;-75
2023/08/26 09:17:20;;;;;;;9.60;8.60;;;;;;;32.18;100.00;98489.90;105958;1252;60392;-73
2023/08/26 09:19:58;;;;;;;9.20;8.40;;;;;;;32.31;100.00;98491.20;105901;1254;65086;-73
2023/08/26 09:22:26;;;;;;;9.40;8.70;;;;;;;32.28;100.00;98493.19;105878;1251;60475;-74
2023/08/26 09:24:56;;;;;;;11.30;9.90;;;;;;;32.09;100.00;98491.48;106054;1254;73157;-74
2023/08/26 09:27:23;;;;;;;9.50;8.60;;;;;;;31.88;100.00;98492.00;106004;1251;60518;-72
2023/08/26 09:29:49;;;;;;;9.60;8.80;;;;;;;31.74;100.00;98497.30;105887;1251;60446;-75
2023/08/26 09:32:31;;;;;;;10.50;9.40;;;;;;;31.57;100.00;98504.98;105938;1254;66735;-74
2023/08/26 09:35:26;;;;;;;9.60;8.70;;;;;;;31.43;100.00;98507.39;105909;1251;60462;-76
2023/08/26 09:37:57;;;;;;;8.90;8.00;;;;;;;31.27;100.00;98507.48;105286;1258;65011;-73
2023/08/26 09:40:25;;;;;;;10.50;9.30;;;;;;;31.20;100.00;98503.72;105339;1257;60526;-74
2023/08/26 09:42:52;;;;;;;9.70;8.40;;;;;;;31.26;100.00;98504.66;105355;1257;60543;-73
2023/08/26 09:45:19;;;;;;;9.20;8.20;;;;;;;31.37;100.00;98512.39;105325;1262;66000;-74
2023/08/26 09:47:51;;;;;;;9.00;8.40;;;;;;;31.44;100.00;98512.20;105294;1258;61295;-74
2023/08/26 09:50:30;;;;;;;9.90;8.80;;;;;;;31.46;100.00;98510.08;105268;1257;64861;-73
2023/08/26 09:52:57;;;;;;;10.50;9.10;;;;;;;31.58;100.00;98499.90;105332;1258;60911;-75
2023/08/26 09:55:23;;;;;;;9.80;8.20;;;;;;;31.63;100.00;98491.63;105246;1257;60450;-75
2023/08/26 09:57:49;;;;;;;10.60;8.60;;;;;;;31.53;100.00;98484.48;105303;1258;60575;-74
2023/08/26 10:00:17;;;;;;;9.30;8.40;;;;;;;31.35;100.00;98482.66;105277;1258;60585;-75
2023/08/26 10:02:50;;;;;;;9.80;8.80;;;;;;;31.18;100.00;98482.20;105287;1257;63317;-74
2023/08/26 10:05:20;;;;;;;10.00;9.10;;;;;;;31.04;100.00;98480.26;105412;1262;60545;-75
2023/08/26 10:07:48;;;;;;;11.20;10.00;;;;;;;30.97;100.00;98476.71;105303;1257;60505;-73
2023/08/26 10:10:34;;;;;;;9.50;8.60;;;;;;;30.92;100.00;98470.47;105300;1262;66069;-74
2023/08/26 10:13:04;;;;;;;9.30;8.30;;;;;;;30.93;100.00;98474.51;105269;1260;68874;-75
2023/08/26 10:15:33;;;;;;;8.70;7.90;;;;;;;31.17;100.00;98479.66;105745;1251;65464;-74
2023/08/26 10:18:11;;;;;;;9.80;8.90;;;;;;;31.32;100.00;98476.13;105838;1251;60510;-74
2023/08/26 10:20:38;;;;;;;8.90;8.20;;;;;;;31.33;100.00;98476.30;105870;1251;60511;-74
2023/08/26 10:23:06;;;;;;;8.70;7.90;;;;;;;31.38;100.00;98474.59;105659;1251;63877;-75
2023/08/26 10:25:33;;;;;;;9.60;8.60;;;;;;;31.45;100.00;98476.24;105967;1251;61137;-76
2023/08/26 10:28:03;;;;;;;11.70;9.60;;;;;;;31.51;100.00;98487.08;105862;1251;64679;-75
2023/08/26 10:30:30;;;;;;;9.70;8.70;;;;;;;31.53;100.00;98495.42;105865;1251;60629;-74
2023/08/26 10:33:01;;;;;;;9.70;8.80;;;;;;;31.50;100.00;98503.59;105708;1259;60632;-75
2023/08/26 10:35:30;;;;;;;9.80;8.80;;;;;;;31.47;100.00;98505.96;105902;1255;66076;-75
2023/08/26 10:38:10;;;;;;;;;;;;;;;31.53;100.00;98505.88;105893;1252;60376;-73
2023/08/26 10:40:36;;;;;;;9.70;8.80;;;;;;;31.52;100.00;98501.02;105839;1252;64681;-74
2023/08/26 10:43:12;;;;;;;9.70;8.80;;;;;;;31.48;100.00;98500.97;105847;1256;60522;-74
2023/08/26 10:45:48;;;;;;;9.90;8.80;;;;;;;31.41;100.00;98510.20;105882;1251;60555;-74
2023/08/26 10:48:15;;;;;;;9.10;8.30;;;;;;;31.20;100.00;98516.54;105886;1251;65820;-73
2023/08/26 10:50:46;;;;;;;9.60;8.70;;;;;;;30.94;100.00;98514.41;105886;1255;60953;-76
2023/08/26 10:53:21;;;;;;;10.30;8.70;;;;;;;30.71;100.00;98518.92;105901;1251;64629;-72
2023/08/26 10:55:54;;;;;;;9.40;8.50;;;;;;;30.52;100.00;98519.41;105866;1251;60452;-72
2023/08/26 10:58:21;;;;;;;9.10;8.20;;;;;;;30.30;100.00;98516.80;105901;1254;60408;-74
2023/08/26 11:00:50;;;;;;;8.90;8.10;;;;;;;30.03;100.00;98511.52;105861;1253;63761;-73
2023/08/26 11:03:20;;;;;;;8.00;7.30;;;;;;;29.71;100.00;98496.54;105963;1256;60702;-72
2023/08/26 11:06:00;;;;;;;7.10;6.50;;;;;;;29.39;100.00;98470.88;105644;1257;62872;-72
2023/08/26 11:08:26;;;;;;;;;;;;;;;29.09;100.00;98466.09;105864;1251;60454;-73
2023/08/26 11:10:52;;;;;;;8.90;7.20;;;;;;;28.81;100.00;98475.02;105849;1251;60530;-73
2023/08/26 11:13:22;;;;;;;7.40;6.80;;;;;;;28.58;100.00;98499.46;105660;1259;60584;-72
2023/08/26 11:15:49;;;;;;;;;;;;;;;28.37;100.00;98513.80;105912;1251;60624;-71
2023/08/26 11:18:16;;;;;;;8.40;7.50;;;;;;;28.15;100.00;98513.96;105893;1251;64034;-73
2023/08/26 11:20:44;;;;;;;8.00;7.20;;;;;;;27.98;100.00;98519.84;105895;1255;60516;-71
2023/08/26 11:23:10;;;;;;;8.80;7.90;;;;;;;27.82;100.00;98514.64;105910;1254;60409;-73
2023/08/26 11:25:37;;;;;;;8.50;7.70;;;;;;;27.68;100.00;98500.95;105847;1255;60588;-71
2023/08/26 11:28:10;;;;;;;9.20;7.10;;;;;;;27.60;100.00;98508.34;105852;1254;60332;-73
2023/08/26 11:30:41;;;;;;;9.10;8.20;;;;;;;27.53;100.00;98539.44;106058;1256;64288;-73
2023/08/26 11:33:10;;;;;;;8.70;7.80;;;;;;;27.46;100.00;98578.10;105886;1255;60551;-72
2023/08/26 11:35:41;;;;;;;8.90;8.10;;;;;;;27.38;100.00;98606.30;105837;1253;60351;-73
2023/08/26 11:38:07;;;;;;;9.80;8.10;;;;;;;27.25;100.00;98618.84;105883;1252;65221;-71
2023/08/26 11:40:34;;;;;;;11.10;10.10;;;;;;;27.03;100.00;98624.39;105871;1256;60472;-72
2023/08/26 11:43:16;;;;;;;12.90;11.50;;;;;;;26.80;100.00;98637.79;105916;1251;63586;-73
2023/08/26 11:45:43;;;;;;;12.00;10.90;;;;;;;26.49;100.00;98675.03;105872;1251;60559;-72
2023/08/26 11:48:13;;;;;;;8.20;7.00;;;;;;;26.16;100.00;98729.55;105889;1252;60572;-72
2023/08/26 11:50:42;;;;;;;6.80;6.10;;;;;;;25.77;100.00;98753.93;105848;1256;66437;-73
2023/08/26 11:53:09;;;;;;;6.50;5.70;;;;;;;25.35;100.00;98743.35;105850;1251;60620;-72
2023/08/26 11:55:35;;;;;;;9.50;5.80;;;;;;;25.00;100.00;98727.60;105854;1251;62721;-72
2023/08/26 11:58:03;;;;;;;6.20;5.60;;;;;;;24.71;100.00;98723.75;105852;1252;60482;-72
2023/08/26 12:00:30;;;;;;;8.60;6.50;;;;;;;24.45;100.00;98726.07;105888;1251;60418;-73
2023/08/26 12:03:04;;;;;;;9.00;7.40;;;;;;;24.20;100.00;98721.60;105945;1255;65999;-72
2023/08/26 12:05:46;;;;;;;6.90;5.90;;;;;;;23.94;100.00;98721.42;105950;1255;60622;-72
2023/08/26 12:08:16;;;;;;;8.10;6.50;;;;;;;23.71;100.00;98705.09;105945;1251;64700;-74
2023/08/26 12:10:47;;;;;;;7.90;6.80;;;;;;;23.55;100.00;98685.75;105949;1251;60475;-73
2023/08/26 12:13:13;;;;;;;7.70;7.00;;;;;;;23.40;100.00;98657.09;105919;1251;60549;-74
2023/08/26 12:15:40;;;;;;;6.60;5.90;;;;;;;23.28;100.00;98636.96;105822;1255;60465;-73
2023/08/26 12:18:08;;;;;;;6.80;6.10;;;;;;;23.15;100.00;98630.90;105938;1255;60317;-72
2023/08/26 12:20:35;;;;;;;7.00;5.90;;;;;;;23.05;100.00;98625.30;105860;1251;64953;-71
2023/08/26 12:23:05;;;;;;;6.00;5.50;;;;;;;22.95;100.00;98606.42;105657;1251;60510;-72
2023/08/26 12:25:41;;;;;;;6.20;4.50;;;;;;;22.86;100.00;98577.61;105782;1251;60752;-71
2023/08/26 12:28:26;;;;;;;5.70;5.00;;;;;;;22.79;100.00;98566.94;105874;1251;65971;-72
2023/08/26 12:30:53;;;;;;;7.60;5.90;;;;;;;22.74;100.00;98555.27;105991;1251;60808;-72
2023/08/26 12:33:19;;;;;;;4.90;4.30;;;;;;;22.69;100.00;98537.95;105873;1251;64058;-72
2023/08/26 12:35:46;;;;;;;6.10;4.60;;;;;;;22.64;100.00;98521.05;105810;1251;60561;-72
2023/08/26 12:38:12;;;;;;;4.80;4.00;;;;;;;22.57;100.00;98503.88;105809;1251;60543;-72
2023/08/26 12:40:40;;;;;;;8.30;4.50;;;;;;;22.48;100.00;98465.89;105838;1251;60529;-72
2023/08/26 12:43:06;;;;;;;4.80;4.10;;;;;;;22.40;100.00;98430.08;105839;1257;60404;-71
2023/08/26 12:45:34;;;;;;;4.70;4.30;;;;;;;22.30;100.00;98443.38;105810;1256;60500;-72
2023/08/26 12:48:01;;;;;;;4.20;3.80;;;;;;;22.19;100.00;98457.23;105922;1253;60486;-72
2023/08/26 12:50:27;;;;;;;6.40;4.90;;;;;;;22.08;100.00;98454.05;105865;1256;60484;-72
2023/08/26 12:52:54;;;;;;;5.70;4.80;;;;;;;22.00;100.00;98469.53;105784;1253;60350;-73
2023/08/26 12:55:20;;;;;;;5.80;5.20;;;;;;;21.93;100.00;98496.03;105806;1254;60495;-71
2023/08/26 12:57:47;;;;;;;5.90;4.30;;;;;;;21.89;100.00;98572.60;105779;1254;62039;-71
2023/08/26 13:00:13;;;;;;;4.60;4.20;;;;;;;21.79;100.00;98607.48;105789;1254;60565;-72
2023/08/26 13:02:39;;;;;;;7.40;5.30;;;;;;;21.67;100.00;98590.13;105820;1254;60981;-72
2023/08/26 13:05:08;;;;;;;7.00;6.10;;;;;;;21.64;100.00;98583.45;105808;1254;60482;-72
2023/08/26 13:07:38;;;;;;;7.60;6.80;;;;;;;21.66;100.00;98588.08;105823;1254;61086;-72
2023/08/26 13:10:07;;;;;;;7.50;6.80;;;;;;;21.73;100.00;98579.48;105761;1251;63388;-72
2023/08/26 13:12:34;;;;;;;7.10;5.70;;;;;;;21.84;100.00;98570.15;105803;1256;60492;-73
2023/08/26 13:15:00;;;;;;;7.10;5.80;;;;;;;21.99;100.00;98562.03;105774;1255;60456;-71
2023/08/26 13:17:26;;;;;;;6.80;6.10;;;;;;;22.15;100.00;98561.97;105810;1254;60469;-72
2023/08/26 13:19:52;;;;;;;7.50;6.40;;;;;;;22.32;100.00;98555.92;105812;1253;60546;-72
2023/08/26 13:22:18;;;;;;;7.00;6.20;;;;;;;22.51;100.00;98556.97;105795;1253;60594;-71
2023/08/26 13:24:44;;;;;;;8.80;6.50;;;;;;;22.72;100.00;98559.84;105462;1254;62071;-72
2023/08/26 13:27:10;;;;;;;7.70;6.70;;;;;;;22.99;100.00;98560.41;105488;1259;60492;-72
2023/08/26 13:29:36;;;;;;;10.00;6.80;;;;;;;23.27;100.00;98558.56;105510;1259;60571;-72
2023/08/26 13:32:02;;;;;;;7.90;6.80;;;;;;;23.59;100.00;98555.09;105832;1255;60537;-72
2023/08/26 13:34:28;;;;;;;6.80;6.20;;;;;;;23.89;100.00;98562.77;105845;1254;60556;-72
2023/08/26 13:36:54;;;;;;;7.10;6.40;;;;;;;24.20;100.00;98562.60;105441;1253;60467;-73
2023/08/26 13:39:20;;;;;;;7.30;6.00;;;;;;;24.53;100.00;98568.41;105422;1254;60656;-73
2023/08/26 13:41:46;;;;;;;6.50;5.70;;;;;;;24.84;100.00;98578.52;105633;1254;60458;-72
2023/08/26 13:44:12;;;;;;;7.00;6.40;;;;;;;25.08;100.00;98581.82;105810;1254;60552;-72
2023/08/26 13:46:38;;;;;;;8.30;7.10;;;;;;;25.25;100.00;98577.98;105828;1254;60370;-72
2023/08/26 13:49:04;;;;;;;8.70;7.50;;;;;;;25.32;100.00;98579.48;105776;1254;60541;-72
2023/08/26 13:51:30;;;;;;;10.10;8.20;;;;;;;25.32;100.00;98591.09;105814;1256;60472;-72
2023/08/26 13:53:57;;;;;;;7.40;6.60;;;;;;;25.29;100.00;98601.40;105842;1257;60593;-71
2023/08/26 13:56:23;;;;;;;6.50;6.00;;;;;;;25.23;100.00;98606.05;105792;1253;60468;-71
2023/08/26 13:58:49;;;;;;;6.70;5.50;;;;;;;25.14;100.00;98602.61;109575;1252;58220;-73
2023/08/26 14:01:15;;;;;;;6.20;5.60;;;;;;;25.05;100.00;98600.27;109599;1253;58238;-71
2023/08/26 14:03:41;;;;;;;5.80;5.10;;;;;;;24.97;100.00;98599.78;109577;1253;58255;-73
2023/08/26 14:06:08;;;;;;;6.50;5.90;;;;;;;24.90;100.00;98599.14;109359;1253;58329;-72
2023/08/26 14:08:34;;;;;;;8.80;6.00;;;;;;;24.84;100.00;98595.71;109327;1251;58618;-71
2023/08/26 14:11:01;;;;;;;10.30;6.70;;;;;;;24.79;100.00;98586.84;109499;1254;58288;-71
2023/08/26 14:13:28;;;;;;;6.70;4.80;;;;;;;24.72;100.00;98585.87;109626;1252;58149;-72
2023/08/26 14:15:54;;;;;;;5.00;4.60;;;;;;;24.61;100.00;98583.13;109557;1253;58303;-72
2023/08/26 14:18:20;;;;;;;5.60;4.60;;;;;;;24.50;100.00;98584.46;109537;1253;58280;-72
2023/08/26 14:20:46;;;;;;;5.50;4.90;;;;;;;24.40;100.00;98584.13;109289;1253;58311;-72
2023/08/26 14:23:13;;;;;;;5.80;5.10;;;;;;;24.29;100.00;98582.68;109256;1254;58320;-72
2023/08/26 14:25:40;;;;;;;5.20;4.80;;;;;;;24.21;100.00;98578.41;109426;1252;58249;-73
2023/08/26 14:28:06;;;;;;;5.60;5.00;;;;;;;24.16;100.00;98567.31;109585;1255;58246;-72
2023/08/26 14:30:32;;;;;;;8.80;7.10;;;;;;;24.16;100.00;98571.59;109569;1251;58235;-72
2023/08/26 14:32:58;;;;;;;6.10;5.10;;;;;;;24.20;100.00;98572.08;109567;1253;58201;-72
2023/08/26 14:35:24;;;;;;;8.00;6.60;;;;;;;24.24;100.00;98566.91;109547;1252;58202;-72
2023/08/26 14:37:51;;;;;;;5.70;5.10;;;;;;;24.31;100.00;98560.79;109634;1254;58252;-72
2023/08/26 14:40:17;;;;;;;6.20;4.70;;;;;;;24.41;100.00;98548.89;109554;1254;58333;-72
2023/08/26 14:42:43;;;;;;;5.10;4.60;;;;;;;24.57;100.00;98540.19;109608;1251;58202;-72
2023/08/26 14:45:12;;;;;;;7.10;4.60;;;;;;;24.73;100.00;98550.14;109518;1252;58176;-72
2023/08/26 14:47:44;;;;;;;6.50;5.90;;;;;;;24.92;100.00;98557.44;109611;1253;65167;-73
2023/08/26 14:50:10;;;;;;;6.30;5.60;;;;;;;25.15;100.00;98559.48;109587;1252;59050;-72
2023/08/26 14:52:36;;;;;;;5.50;5.00;;;;;;;25.39;100.00;98565.11;109547;1251;58254;-72
2023/08/26 14:55:02;;;;;;;5.10;4.30;;;;;;;25.60;100.00;98568.31;109250;1253;58225;-72
2023/08/26 14:57:29;;;;;;;6.60;5.70;;;;;;;25.81;100.00;98566.80;109547;1254;58164;-71
2023/08/26 14:59:55;;;;;;;11.20;9.30;;;;;;;26.08;100.00;98563.17;109579;1253;58125;-72
2023/08/26 15:02:21;;;;;;;7.70;5.60;;;;;;;26.35;100.00;98556.67;109508;1254;58205;-72
2023/08/26 15:04:47;;;;;;;3.90;3.60;;;;;;;26.47;100.00;98549.15;109564;1253;58287;-71
2023/08/26 15:07:13;;;;;;;7.60;5.90;;;;;;;26.52;100.00;98538.81;109421;1252;58231;-72
2023/08/26 15:09:40;;;;;;;4.00;3.70;;;;;;;26.60;100.00;98529.11;109582;1251;58298;-72
2023/08/26 15:12:06;;;;;;;8.00;6.40;;;;;;;26.64;100.00;98530.39;109572;1252;58161;-72
2023/08/26 15:14:35;;;;;;;5.80;4.50;;;;;;;26.67;100.00;98531.90;109586;1254;58207;-71
2023/08/26 15:17:02;;;;;;;4.70;4.00;;;;;;;26.69;100.00;98536.35;109156;1253;58227;-72
2023/08/26 15:19:28;;;;;;;7.40;5.20;;;;;;;26.67;100.00;98540.77;109555;1251;58192;-72
2023/08/26 15:21:54;;;;;;;6.80;5.10;;;;;;;26.71;100.00;98537.00;109566;1252;58185;-71
2023/08/26 15:24:20;;;;;;;5.40;4.80;;;;;;;26.75;100.00;98525.39;109586;1253;58297;-72